Time;durP1;ratioP1;P1;durP2;ratioP2;P2;SDS_P1;SDS_P2;PMS_P1;PMS_P2;Temp;Humidity;BMP_temperature;BMP_pressure;BME280_temperature;BME280_humidity;BME280_pressure;Samples;Min_cycle;Max_cycle;Signal;HPM_P1;HPM_P2
2021/12/29 00:00:25;;;;;;;5.13;4.63;;;;;;;10.34;85.45;98578.56;5076394;28;20045;-80
2021/12/29 00:02:54;;;;;;;3.95;3.42;;;;;;;10.28;85.49;98586.34;5075399;28;20049;-79
2021/12/29 00:05:22;;;;;;;3.33;2.53;;;;;;;10.28;85.33;98593.91;5076361;28;20047;-79
2021/12/29 00:07:50;;;;;;;3.30;3.00;;;;;;;10.31;85.14;98596.81;5075265;28;20048;-80
2021/12/29 00:10:18;;;;;;;3.33;2.38;;;;;;;10.29;85.26;98599.13;5074798;28;20052;-78
2021/12/29 00:12:47;;;;;;;3.28;2.55;;;;;;;10.27;85.17;98597.84;5075720;28;20052;-78
2021/12/29 00:15:20;;;;;;;3.50;3.10;;;;;;;10.26;85.41;98605.38;5074773;28;20505;-80
2021/12/29 00:17:50;;;;;;;4.45;3.47;;;;;;;10.32;85.40;98605.97;5075619;28;20051;-78
2021/12/29 00:20:22;;;;;;;4.50;4.10;;;;;;;10.33;85.30;98610.34;5076308;28;20067;-80
2021/12/29 00:22:50;;;;;;;5.28;4.78;;;;;;;10.24;85.43;98613.28;5076854;28;20405;-80
2021/12/29 00:25:17;;;;;;;6.82;4.93;;;;;;;10.33;85.20;98611.16;5074664;28;20048;-80
2021/12/29 00:27:45;;;;;;;8.63;4.68;;;;;;;10.34;85.16;98617.53;5075350;28;20053;-79
2021/12/29 00:30:14;;;;;;;5.50;5.00;;;;;;;10.29;85.15;98615.84;5075482;28;20047;-79
2021/12/29 00:32:41;;;;;;;5.68;5.18;;;;;;;10.29;85.26;98623.31;5070986;28;20051;-78
2021/12/29 00:35:14;;;;;;;7.40;6.57;;;;;;;10.28;85.16;98630.06;5076008;28;20532;-80
2021/12/29 00:37:43;;;;;;;6.65;6.05;;;;;;;10.33;85.07;98639.00;5076131;28;20052;-80
2021/12/29 00:40:14;;;;;;;6.55;5.85;;;;;;;10.29;84.94;98631.66;5075806;28;20051;-80
2021/12/29 00:42:42;;;;;;;7.82;7.00;;;;;;;10.27;84.90;98632.06;5074179;28;20051;-80
2021/12/29 00:45:11;;;;;;;10.75;6.97;;;;;;;10.32;84.94;98642.13;5074812;28;20417;-80
2021/12/29 00:47:39;;;;;;;8.48;7.68;;;;;;;10.32;84.81;98642.13;5074890;28;20049;-78
2021/12/29 00:50:12;;;;;;;8.70;7.40;;;;;;;10.31;84.92;98651.63;5071976;28;20055;-80
2021/12/29 00:52:44;;;;;;;9.05;7.90;;;;;;;10.33;84.58;98650.13;5074350;28;20374;-81
2021/12/29 00:55:12;;;;;;;8.38;7.57;;;;;;;10.16;85.22;98656.81;5078130;28;20063;-80
2021/12/29 00:57:40;;;;;;;9.15;8.25;;;;;;;10.16;85.09;98673.50;5074571;28;20044;-80
2021/12/29 01:00:11;;;;;;;9.68;8.77;;;;;;;10.24;85.00;98673.69;5074840;28;20056;-79
2021/12/29 01:02:39;;;;;;;7.47;6.65;;;;;;;10.21;85.32;98686.34;5070505;28;20040;-80
2021/12/29 01:05:08;;;;;;;8.88;8.07;;;;;;;10.24;84.98;98695.94;5071382;28;20048;-80
2021/12/29 01:07:35;;;;;;;10.73;8.57;;;;;;;10.24;84.72;98704.28;5075781;28;20052;-80
2021/12/29 01:10:06;;;;;;;10.30;9.30;;;;;;;10.29;84.68;98715.16;5075186;28;20489;-81
2021/12/29 01:12:33;;;;;;;8.73;7.93;;;;;;;10.22;84.67;98710.22;5074959;28;20469;-80
2021/12/29 01:15:03;;;;;;;10.10;9.02;;;;;;;10.19;84.77;98732.38;5074315;28;20052;-80
2021/12/29 01:17:31;;;;;;;;;;;;;;;10.20;84.15;98742.34;5075824;28;20408;-80
2021/12/29 01:19:59;;;;;;;10.82;9.13;;;;;;;10.23;84.72;98739.66;5075768;28;19928;-80
2021/12/29 01:22:27;;;;;;;10.73;9.60;;;;;;;10.23;84.70;98755.56;5073861;28;20049;-80
2021/12/29 01:24:54;;;;;;;10.25;9.23;;;;;;;10.22;84.99;98753.91;5074559;28;20044;-80
2021/12/29 01:27:23;;;;;;;9.85;8.85;;;;;;;10.24;84.81;98757.16;5073846;28;20409;-79
2021/12/29 01:29:51;;;;;;;9.10;8.20;;;;;;;10.14;84.85;98758.47;5074611;28;20052;-80
2021/12/29 01:32:18;;;;;;;9.52;8.57;;;;;;;10.14;85.14;98769.59;5076451;28;20059;-79
2021/12/29 01:34:46;;;;;;;9.55;8.60;;;;;;;10.19;85.16;98777.72;5066881;28;20056;-79
2021/12/29 01:37:13;;;;;;;8.48;6.90;;;;;;;10.19;85.29;98780.50;5073320;28;20056;-79
2021/12/29 01:39:41;;;;;;;6.68;5.90;;;;;;;10.13;85.15;98791.03;5078407;28;20044;-79
2021/12/29 01:42:08;;;;;;;7.15;5.95;;;;;;;10.12;85.64;98803.34;5078071;28;20040;-80
2021/12/29 01:44:38;;;;;;;7.75;6.43;;;;;;;10.08;85.85;98804.38;5079619;28;20044;-80
2021/12/29 01:47:06;;;;;;;6.32;5.60;;;;;;;10.07;85.58;98811.13;5077632;28;20049;-79
2021/12/29 01:49:33;;;;;;;7.03;6.18;;;;;;;10.13;85.51;98818.88;5077796;28;20056;-80
2021/12/29 01:52:04;;;;;;;9.10;6.25;;;;;;;10.08;85.55;98821.91;5077267;28;20143;-80
2021/12/29 01:54:35;;;;;;;7.78;6.38;;;;;;;10.15;85.16;98833.25;5082834;28;20405;-80
2021/12/29 01:57:05;;;;;;;7.65;6.63;;;;;;;10.12;85.35;98839.53;5079674;28;20070;-80
2021/12/29 01:59:34;;;;;;;8.15;7.32;;;;;;;10.12;84.97;98833.97;5078947;28;20048;-79
2021/12/29 02:02:04;;;;;;;8.10;6.75;;;;;;;10.20;85.05;98839.72;5069644;28;20053;-79
2021/12/29 02:04:32;;;;;;;;;;;;;;;10.11;83.57;98849.00;5059801;28;20056;-80
2021/12/29 02:07:00;;;;;;;9.55;7.32;;;;;;;10.16;84.94;98859.91;5074156;28;20292;-79
2021/12/29 02:09:28;;;;;;;7.85;6.68;;;;;;;10.12;84.84;98866.50;5077597;28;20048;-80
2021/12/29 02:11:55;;;;;;;8.65;7.53;;;;;;;10.16;84.89;98873.81;5076988;28;20057;-80
2021/12/29 02:14:23;;;;;;;6.57;5.82;;;;;;;10.21;84.91;98869.19;5078536;28;20493;-80
2021/12/29 02:16:51;;;;;;;7.93;6.35;;;;;;;10.19;84.54;98869.53;5078944;28;20053;-79
2021/12/29 02:19:22;;;;;;;9.10;6.30;;;;;;;10.26;84.67;98874.50;5079704;28;20048;-80
2021/12/29 02:21:57;;;;;;;8.15;6.45;;;;;;;10.25;84.75;98876.47;5078291;28;20416;-79
2021/12/29 02:24:36;;;;;;;7.72;6.75;;;;;;;10.16;84.82;98881.34;5077895;28;20508;-79
2021/12/29 02:27:05;;;;;;;7.80;7.00;;;;;;;10.19;84.86;98888.19;5077524;28;20052;-79
2021/12/29 02:29:33;;;;;;;8.10;7.30;;;;;;;10.08;84.86;98894.25;5079458;28;20072;-79
2021/12/29 02:32:04;;;;;;;11.20;8.57;;;;;;;10.08;85.11;98882.28;5078400;28;20481;-79
2021/12/29 02:34:32;;;;;;;10.20;8.27;;;;;;;10.10;84.42;98883.56;5074472;28;20056;-79
2021/12/29 02:37:03;;;;;;;9.20;7.65;;;;;;;10.09;84.47;98884.72;5077687;28;20055;-79
2021/12/29 02:39:33;;;;;;;8.80;7.90;;;;;;;9.98;84.88;98889.16;5074193;28;20052;-80
2021/12/29 02:42:04;;;;;;;;;;;;;;;9.93;84.48;98892.16;5072014;28;20053;-80
2021/12/29 02:44:39;;;;;;;11.27;8.55;;;;;;;9.99;85.09;98906.63;5076799;28;19921;-80
2021/12/29 02:47:07;;;;;;;14.02;7.65;;;;;;;9.95;85.53;98896.22;5077394;28;20056;-80
2021/12/29 02:49:34;;;;;;;9.85;8.50;;;;;;;10.00;85.71;98917.44;5077328;28;20049;-80
2021/12/29 02:52:04;;;;;;;10.60;8.50;;;;;;;10.08;85.51;98915.66;5077325;28;20060;-80
2021/12/29 02:54:32;;;;;;;10.68;7.65;;;;;;;10.08;85.72;98924.84;5082068;28;20496;-78
2021/12/29 02:56:59;;;;;;;12.70;9.73;;;;;;;10.07;85.19;98922.41;5098727;28;20055;-78
2021/12/29 02:59:27;;;;;;;10.68;8.70;;;;;;;10.00;85.11;98923.00;5098317;28;20047;-79
2021/12/29 03:01:54;;;;;;;11.32;10.13;;;;;;;10.16;84.89;98920.28;5081997;28;20500;-79
2021/12/29 03:04:25;;;;;;;11.88;9.60;;;;;;;10.21;84.56;98936.75;5077283;28;20052;-80
2021/12/29 03:06:55;;;;;;;12.13;10.57;;;;;;;10.21;84.72;98950.69;5078287;28;20056;-79
2021/12/29 03:09:24;;;;;;;12.48;9.93;;;;;;;10.20;84.38;98956.59;5077575;28;20064;-80
2021/12/29 03:11:52;;;;;;;9.38;8.40;;;;;;;10.21;84.34;98955.44;5076642;28;20052;-80
2021/12/29 03:14:20;;;;;;;11.40;10.25;;;;;;;10.25;84.11;98962.72;5076971;28;20055;-79
2021/12/29 03:16:49;;;;;;;11.10;9.93;;;;;;;10.22;83.85;98955.06;5076301;28;20059;-80
2021/12/29 03:19:16;;;;;;;11.73;10.37;;;;;;;10.25;83.55;98967.50;5076187;28;20048;-80
2021/12/29 03:21:46;;;;;;;12.38;10.82;;;;;;;10.24;83.80;98965.84;5076215;28;21072;-79
2021/12/29 03:24:14;;;;;;;12.30;11.00;;;;;;;10.32;83.39;98973.31;5076170;28;20044;-79
2021/12/29 03:26:43;;;;;;;11.82;10.68;;;;;;;10.36;83.46;98963.09;5076392;28;20041;-79
2021/12/29 03:29:10;;;;;;;12.30;11.15;;;;;;;10.29;83.31;98963.69;5075755;28;20056;-80
2021/12/29 03:31:39;;;;;;;11.85;10.63;;;;;;;10.29;83.29;98954.47;5070877;28;20520;-80
2021/12/29 03:34:07;;;;;;;11.35;9.95;;;;;;;10.33;83.35;98953.47;5071906;28;20055;-79
2021/12/29 03:36:35;;;;;;;12.85;11.25;;;;;;;10.41;83.19;98960.06;5077018;28;20060;-79
2021/12/29 03:39:02;;;;;;;10.55;9.52;;;;;;;10.40;83.13;98968.78;5076604;28;20048;-80
2021/12/29 03:41:29;;;;;;;11.15;10.05;;;;;;;10.45;82.79;98969.34;5076334;28;20072;-80
2021/12/29 03:43:58;;;;;;;12.15;10.90;;;;;;;10.38;82.84;98980.25;5077158;28;20052;-80
2021/12/29 03:46:27;;;;;;;11.45;10.23;;;;;;;10.42;82.85;98972.81;5076467;28;20056;-80
2021/12/29 03:48:55;;;;;;;11.10;10.02;;;;;;;10.47;82.90;98975.34;5077292;28;20393;-80
2021/12/29 03:51:22;;;;;;;11.10;9.48;;;;;;;10.37;82.43;98986.97;5070341;28;20045;-80
2021/12/29 03:53:50;;;;;;;9.32;8.43;;;;;;;10.35;83.12;98990.13;5074907;28;20048;-81
2021/12/29 03:56:17;;;;;;;9.93;8.23;;;;;;;10.38;82.57;99012.84;5081220;28;20056;-80
2021/12/29 03:58:45;;;;;;;9.60;8.20;;;;;;;10.29;83.27;99008.22;5076482;28;20044;-80
2021/12/29 04:01:16;;;;;;;10.38;8.55;;;;;;;10.33;83.33;99003.56;5063589;28;20053;-79
2021/12/29 04:03:45;;;;;;;10.07;9.13;;;;;;;10.33;83.33;99017.50;5076850;28;20044;-80
2021/12/29 04:06:14;;;;;;;10.73;9.57;;;;;;;10.30;83.38;99017.38;5076107;28;20053;-80
2021/12/29 04:08:42;;;;;;;8.85;7.45;;;;;;;10.35;83.13;99014.34;5076174;28;20056;-80
2021/12/29 04:11:09;;;;;;;9.45;8.30;;;;;;;10.30;83.41;99026.53;5075422;28;20059;-80
2021/12/29 04:13:37;;;;;;;9.25;8.00;;;;;;;10.29;83.45;99032.41;5067982;28;20048;-81
2021/12/29 04:16:06;;;;;;;9.75;8.75;;;;;;;10.23;83.46;99036.59;5076029;28;20056;-80
2021/12/29 04:18:44;;;;;;;9.17;7.50;;;;;;;10.23;83.54;99044.94;5076522;28;20044;-80
2021/12/29 04:21:13;;;;;;;7.75;7.05;;;;;;;10.20;83.38;99045.63;5076088;28;20823;-80
2021/12/29 04:23:40;;;;;;;9.40;7.88;;;;;;;10.26;83.38;99066.50;5076270;28;20056;-79
2021/12/29 04:26:08;;;;;;;7.35;6.63;;;;;;;10.14;83.32;99058.94;5075164;28;20053;-79
2021/12/29 04:28:38;;;;;;;8.15;7.10;;;;;;;10.05;82.63;99072.97;5051422;28;20055;-80
2021/12/29 04:31:07;;;;;;;;;;;;;;;10.01;82.64;99077.59;5075129;28;20409;-80
2021/12/29 04:33:37;;;;;;;8.27;7.27;;;;;;;10.11;83.66;99082.72;5076616;28;19935;-80
2021/12/29 04:36:06;;;;;;;9.05;7.50;;;;;;;10.12;83.65;99089.91;5075697;28;20470;-80
2021/12/29 04:38:34;;;;;;;8.77;7.03;;;;;;;10.07;83.44;99092.91;5074672;28;20068;-80
2021/12/29 04:41:04;;;;;;;8.50;6.93;;;;;;;10.21;82.94;99081.47;5053727;28;20052;-80
2021/12/29 04:43:32;;;;;;;7.68;6.38;;;;;;;10.22;83.11;99085.03;5073268;28;20491;-78
2021/12/29 04:45:59;;;;;;;7.38;6.30;;;;;;;10.26;83.02;99097.91;5074413;28;20389;-81
2021/12/29 04:48:30;;;;;;;6.78;5.82;;;;;;;10.27;83.36;99093.19;5071476;28;20127;-79
2021/12/29 04:51:06;;;;;;;6.05;5.40;;;;;;;10.28;83.32;99092.81;5074253;28;21363;-80
2021/12/29 04:53:34;;;;;;;6.45;5.22;;;;;;;10.20;83.47;99101.28;5070981;28;20052;-80
2021/12/29 04:56:01;;;;;;;7.43;5.30;;;;;;;10.20;83.41;99106.84;5074390;28;20044;-80
2021/12/29 04:58:29;;;;;;;7.43;6.28;;;;;;;10.17;83.88;99125.03;5074906;28;20060;-79
2021/12/29 05:00:56;;;;;;;7.53;5.65;;;;;;;10.16;84.00;99124.25;5074631;28;20055;-80
2021/12/29 05:03:25;;;;;;;7.45;6.07;;;;;;;10.06;84.03;99123.88;5073883;28;20052;-80
2021/12/29 05:05:56;;;;;;;6.07;5.20;;;;;;;10.06;84.10;99127.47;5074404;28;20040;-79
2021/12/29 05:08:25;;;;;;;6.93;4.80;;;;;;;10.15;83.87;99125.38;5073899;28;20492;-80
2021/12/29 05:10:54;;;;;;;5.63;4.85;;;;;;;10.19;83.32;99133.06;5073810;28;20052;-80
2021/12/29 05:13:21;;;;;;;6.80;5.25;;;;;;;10.09;83.75;99129.53;5073987;28;20055;-79
2021/12/29 05:15:49;;;;;;;6.85;5.47;;;;;;;10.06;83.43;99121.09;5074327;28;20378;-80
2021/12/29 05:18:16;;;;;;;6.78;4.90;;;;;;;9.99;83.40;99123.59;5074387;28;20060;-80
2021/12/29 05:20:45;;;;;;;5.70;3.95;;;;;;;9.86;83.50;99142.22;5074284;28;20063;-80
2021/12/29 05:23:12;;;;;;;5.32;3.80;;;;;;;9.94;83.62;99149.66;5068451;28;20059;-80
2021/12/29 05:25:41;;;;;;;5.18;3.75;;;;;;;9.89;82.96;99142.38;5074057;28;20044;-79
2021/12/29 05:28:09;;;;;;;5.83;4.70;;;;;;;9.99;82.85;99141.09;5074474;28;20052;-80
2021/12/29 05:30:37;;;;;;;5.80;4.20;;;;;;;9.99;82.49;99134.72;5074138;28;20037;-79
2021/12/29 05:33:05;;;;;;;4.97;3.53;;;;;;;9.99;82.78;99154.19;5074813;28;20044;-79
2021/12/29 05:35:36;;;;;;;7.82;4.13;;;;;;;9.98;82.30;99158.16;5074076;28;20056;-78
2021/12/29 05:38:04;;;;;;;5.95;3.50;;;;;;;10.05;81.88;99178.69;5074130;28;20052;-79
2021/12/29 05:40:32;;;;;;;5.47;4.20;;;;;;;10.02;82.08;99190.50;5072856;28;20045;-80
2021/12/29 05:43:00;;;;;;;6.45;3.70;;;;;;;10.07;81.73;99192.25;5073682;28;20056;-80
2021/12/29 05:45:30;;;;;;;4.83;3.90;;;;;;;10.11;81.15;99196.78;5073348;28;20393;-80
2021/12/29 05:47:58;;;;;;;6.78;4.20;;;;;;;10.14;81.32;99184.97;5073871;28;20483;-80
2021/12/29 05:50:28;;;;;;;6.82;4.47;;;;;;;10.14;81.79;99184.97;5072344;28;20051;-80
2021/12/29 05:52:57;;;;;;;6.05;5.10;;;;;;;10.12;81.25;99186.47;5072276;28;20056;-80
2021/12/29 05:55:24;;;;;;;8.27;6.22;;;;;;;10.19;81.06;99188.72;5072309;28;20395;-78
2021/12/29 05:57:52;;;;;;;6.72;5.00;;;;;;;10.16;81.23;99207.72;5071961;28;20057;-78
2021/12/29 06:00:22;;;;;;;7.45;6.05;;;;;;;10.18;81.09;99207.34;5072860;28;20048;-78
2021/12/29 06:02:50;;;;;;;9.65;6.40;;;;;;;10.26;80.98;99205.66;5072614;28;20586;-78
2021/12/29 06:05:18;;;;;;;9.07;6.63;;;;;;;10.27;80.94;99208.09;5072821;28;20044;-79
2021/12/29 06:07:46;;;;;;;9.85;6.32;;;;;;;10.28;80.86;99208.91;5072466;28;20394;-78
2021/12/29 06:10:14;;;;;;;9.65;6.85;;;;;;;10.35;80.36;99209.16;5072350;28;20497;-79
2021/12/29 06:12:42;;;;;;;7.47;6.35;;;;;;;10.40;80.40;99214.53;5072492;28;20059;-80
2021/12/29 06:15:10;;;;;;;7.72;6.80;;;;;;;10.27;80.56;99207.28;5073767;28;20048;-79
2021/12/29 06:17:40;;;;;;;9.32;8.02;;;;;;;10.32;80.36;99213.47;5073099;28;20059;-79
2021/12/29 06:20:10;;;;;;;11.25;8.27;;;;;;;10.30;79.43;99223.31;5073152;28;20059;-78
2021/12/29 06:22:37;;;;;;;11.02;9.00;;;;;;;10.38;80.07;99218.81;5072987;28;20052;-79
2021/12/29 06:25:07;;;;;;;11.93;9.02;;;;;;;10.20;79.88;99216.16;5075957;28;20056;-78
2021/12/29 06:27:34;;;;;;;11.70;9.77;;;;;;;10.26;79.98;99216.78;5076764;28;20053;-78
2021/12/29 06:30:02;;;;;;;10.35;9.27;;;;;;;10.28;80.13;99214.47;5077192;28;20052;-79
2021/12/29 06:32:29;;;;;;;9.85;8.85;;;;;;;10.20;80.43;99218.16;5077474;28;20049;-78
2021/12/29 06:34:58;;;;;;;11.38;8.02;;;;;;;10.06;80.26;99224.84;5077459;28;20052;-78
2021/12/29 06:37:25;;;;;;;11.07;8.73;;;;;;;9.94;80.57;99222.78;5076735;28;20048;-78
2021/12/29 06:39:52;;;;;;;10.77;9.02;;;;;;;9.81;81.16;99229.47;5076924;28;20044;-80
2021/12/29 06:42:20;;;;;;;12.70;8.90;;;;;;;9.96;80.99;99236.38;5075574;28;20049;-80
2021/12/29 06:44:48;;;;;;;10.05;8.88;;;;;;;10.00;81.24;99237.31;5077413;28;20060;-80
2021/12/29 06:47:16;;;;;;;16.10;10.50;;;;;;;9.87;81.06;99244.78;5078153;28;20056;-80
2021/12/29 06:49:43;;;;;;;14.98;11.48;;;;;;;9.98;81.24;99241.59;5077883;28;20131;-80
2021/12/29 06:52:12;;;;;;;20.95;14.15;;;;;;;9.99;81.38;99241.25;5076173;28;20056;-80
2021/12/29 06:54:40;;;;;;;21.85;15.10;;;;;;;10.05;81.18;99251.00;5081713;28;20047;-80
2021/12/29 06:57:07;;;;;;;15.07;12.50;;;;;;;10.06;80.69;99272.13;5077735;28;20056;-79
2021/12/29 06:59:35;;;;;;;13.55;10.75;;;;;;;9.94;81.38;99266.50;5076645;28;20055;-79
2021/12/29 07:02:03;;;;;;;18.73;12.82;;;;;;;9.89;81.30;99277.81;5075737;28;20386;-80
2021/12/29 07:04:30;;;;;;;15.82;11.43;;;;;;;9.92;81.33;99274.38;5076451;28;20044;-79
2021/12/29 07:06:58;;;;;;;13.18;10.32;;;;;;;9.94;81.00;99286.78;5076298;28;20063;-79
2021/12/29 07:09:27;;;;;;;9.20;7.07;;;;;;;9.95;81.25;99284.81;5075849;28;20057;-80
2021/12/29 07:11:55;;;;;;;11.57;7.97;;;;;;;9.92;80.68;99285.50;5075506;28;20489;-80
2021/12/29 07:14:22;;;;;;;9.48;7.80;;;;;;;9.69;81.71;99291.38;5075832;28;20052;-79
2021/12/29 07:16:51;;;;;;;9.75;6.43;;;;;;;9.61;82.29;99292.25;5075078;28;20060;-80
2021/12/29 07:19:20;;;;;;;15.00;11.20;;;;;;;9.68;82.31;99289.75;5075903;28;20424;-79
2021/12/29 07:21:49;;;;;;;8.73;6.57;;;;;;;9.79;82.23;99303.28;5074463;28;20440;-80
2021/12/29 07:24:17;;;;;;;7.68;4.80;;;;;;;9.78;82.07;99298.84;5076313;28;20471;-79
2021/12/29 07:26:46;;;;;;;12.05;6.15;;;;;;;9.91;81.76;99304.16;5074535;28;20555;-79
2021/12/29 07:29:14;;;;;;;9.95;6.20;;;;;;;9.94;81.87;99311.00;5073925;28;20524;-80
2021/12/29 07:31:42;;;;;;;7.35;5.20;;;;;;;10.00;81.57;99301.31;5074371;28;20469;-78
2021/12/29 07:34:09;;;;;;;8.52;5.85;;;;;;;9.97;82.06;99310.31;5074368;28;20397;-80
2021/12/29 07:36:37;;;;;;;4.72;3.83;;;;;;;9.90;81.78;99305.28;5074091;28;20056;-79
2021/12/29 07:39:05;;;;;;;4.50;3.25;;;;;;;9.89;81.90;99311.19;5075705;28;20059;-80
2021/12/29 07:41:32;;;;;;;4.88;3.42;;;;;;;9.87;82.11;99316.28;5075522;28;20048;-80
2021/12/29 07:44:03;;;;;;;3.65;2.55;;;;;;;9.90;82.25;99310.06;5075379;28;20059;-80
2021/12/29 07:46:33;;;;;;;4.28;2.97;;;;;;;9.91;81.96;99328.34;5075108;28;20040;-79
2021/12/29 07:49:01;;;;;;;4.70;3.25;;;;;;;9.87;82.22;99325.44;5075310;28;20056;-79
2021/12/29 07:51:28;;;;;;;3.85;2.78;;;;;;;9.74;82.77;99324.56;5076025;28;20063;-80
2021/12/29 07:53:59;;;;;;;4.22;3.53;;;;;;;9.94;82.29;99328.50;5076049;28;20048;-79
2021/12/29 07:56:29;;;;;;;4.97;3.70;;;;;;;9.92;82.43;99335.56;5059006;28;20512;-80
2021/12/29 07:58:56;;;;;;;;;;;;;;;9.93;81.20;99343.56;5075765;28;20055;-79
2021/12/29 08:01:26;;;;;;;6.38;4.30;;;;;;;10.03;82.32;99347.09;5071689;28;19927;-79
2021/12/29 08:03:56;;;;;;;5.78;4.70;;;;;;;10.08;82.15;99339.38;5076055;28;20060;-79
2021/12/29 08:06:23;;;;;;;6.13;5.28;;;;;;;10.16;81.93;99335.72;5076128;28;20052;-80
2021/12/29 08:08:51;;;;;;;6.22;5.43;;;;;;;10.21;81.82;99339.44;5076497;28;20045;-80
2021/12/29 08:11:19;;;;;;;9.25;6.07;;;;;;;10.09;81.77;99338.22;5075160;28;20063;-80
2021/12/29 08:13:47;;;;;;;8.32;6.07;;;;;;;10.10;81.74;99352.94;5075938;28;20044;-80
2021/12/29 08:16:14;;;;;;;7.55;6.60;;;;;;;10.13;81.69;99347.50;5075933;28;20049;-79
2021/12/29 08:18:43;;;;;;;7.45;6.68;;;;;;;10.20;81.67;99348.94;5075214;28;20490;-80
2021/12/29 08:21:11;;;;;;;8.18;6.55;;;;;;;10.19;81.59;99355.66;5074956;28;20055;-78
2021/12/29 08:23:40;;;;;;;10.25;7.32;;;;;;;10.03;81.68;99361.00;5068158;28;20044;-80
2021/12/29 08:26:07;;;;;;;11.13;7.28;;;;;;;9.90;82.11;99360.94;5075248;28;20059;-80
2021/12/29 08:28:34;;;;;;;9.65;7.90;;;;;;;10.16;81.32;99346.84;5074630;28;20507;-80
2021/12/29 08:31:03;;;;;;;8.73;7.80;;;;;;;10.13;81.34;99355.03;5074697;28;20048;-80
2021/12/29 08:33:30;;;;;;;8.85;7.93;;;;;;;10.22;80.96;99366.09;5076441;28;20053;-80
2021/12/29 08:35:59;;;;;;;9.98;8.98;;;;;;;10.22;80.77;99374.44;5076814;28;20424;-80
2021/12/29 08:38:26;;;;;;;10.95;8.48;;;;;;;10.16;81.36;99371.88;5077109;28;20055;-80
2021/12/29 08:40:54;;;;;;;9.90;8.90;;;;;;;10.20;81.14;99382.31;5076431;28;20056;-80
2021/12/29 08:43:21;;;;;;;10.13;9.02;;;;;;;10.31;80.61;99376.06;5071953;28;20397;-79
2021/12/29 08:45:49;;;;;;;11.38;10.05;;;;;;;10.21;80.88;99375.63;5076877;28;20052;-79
2021/12/29 08:48:16;;;;;;;12.50;10.02;;;;;;;10.30;80.53;99379.97;5076725;28;20104;-80
2021/12/29 08:50:44;;;;;;;13.75;11.38;;;;;;;10.39;80.40;99377.13;5075599;28;20520;-80
2021/12/29 08:53:14;;;;;;;12.68;11.05;;;;;;;10.33;80.70;99379.31;5076489;28;20379;-80
2021/12/29 08:55:46;;;;;;;13.15;11.20;;;;;;;10.32;80.85;99382.44;5073667;28;20044;-80
2021/12/29 08:58:15;;;;;;;13.52;11.38;;;;;;;10.24;80.96;99388.84;5057828;28;20060;-79
2021/12/29 09:00:43;;;;;;;12.45;10.88;;;;;;;10.26;80.89;99375.41;5074705;28;20427;-79
2021/12/29 09:03:10;;;;;;;14.73;12.85;;;;;;;10.04;81.33;99387.69;5072616;28;20067;-79
2021/12/29 09:05:38;;;;;;;15.05;12.05;;;;;;;10.22;81.17;99388.38;5062809;28;20044;-80
2021/12/29 09:08:06;;;;;;;14.57;11.18;;;;;;;10.23;81.07;99385.25;5074958;28;20049;-80
2021/12/29 09:10:35;;;;;;;17.75;14.05;;;;;;;10.15;81.11;99389.72;5074835;28;20056;-80
2021/12/29 09:13:03;;;;;;;17.27;13.32;;;;;;;10.16;81.28;99391.38;5074832;28;20469;-80
2021/12/29 09:15:30;;;;;;;16.98;12.27;;;;;;;10.27;81.22;99396.53;5074579;28;20060;-81
2021/12/29 09:17:59;;;;;;;17.27;14.27;;;;;;;10.33;80.74;99395.19;5075049;28;20048;-80
2021/12/29 09:20:30;;;;;;;18.73;15.02;;;;;;;10.25;80.80;99393.28;5073576;28;20060;-80
2021/12/29 09:23:00;;;;;;;18.40;15.85;;;;;;;10.31;80.66;99391.91;5074545;28;20059;-79
2021/12/29 09:25:28;;;;;;;18.88;15.95;;;;;;;10.35;80.65;99398.44;5073047;28;20040;-81
2021/12/29 09:27:58;;;;;;;18.52;15.77;;;;;;;10.39;80.10;99402.19;5074903;28;20048;-81
2021/12/29 09:30:28;;;;;;;18.35;15.88;;;;;;;10.38;81.18;99408.91;5073371;28;20049;-80
2021/12/29 09:32:56;;;;;;;19.00;15.45;;;;;;;10.55;80.05;99408.75;5074620;28;20053;-80
2021/12/29 09:35:25;;;;;;;19.13;15.65;;;;;;;10.54;79.09;99423.00;5074581;28;20071;-80
2021/12/29 09:37:53;;;;;;;19.92;15.63;;;;;;;10.54;78.84;99415.50;5067628;28;20055;-80
2021/12/29 09:40:22;;;;;;;20.17;14.63;;;;;;;10.55;78.95;99411.53;5057659;28;20493;-82
2021/12/29 09:42:52;;;;;;;20.77;15.13;;;;;;;10.62;78.54;99424.09;5074830;28;20470;-81
2021/12/29 09:45:22;;;;;;;20.85;16.20;;;;;;;10.56;78.58;99440.19;5076074;28;20060;-81
2021/12/29 09:47:49;;;;;;;17.80;15.07;;;;;;;10.50;78.31;99442.41;5076234;28;20044;-82
2021/12/29 09:50:21;;;;;;;18.52;14.45;;;;;;;10.44;77.96;99440.97;5073804;28;20060;-81
2021/12/29 09:52:49;;;;;;;18.75;14.77;;;;;;;10.35;78.79;99432.69;5073337;28;20040;-81
2021/12/29 09:55:19;;;;;;;20.42;16.42;;;;;;;10.47;78.69;99440.28;5077108;28;20049;-82
2021/12/29 09:57:49;;;;;;;18.88;14.80;;;;;;;10.51;77.44;99434.84;5077731;28;20044;-82
2021/12/29 10:00:28;;;;;;;20.92;16.52;;;;;;;10.68;77.51;99439.47;5079549;28;20057;-83
2021/12/29 10:02:58;;;;;;;20.75;15.73;;;;;;;10.73;77.26;99426.16;5089094;28;20056;-85
2021/12/29 10:05:27;;;;;;;18.52;14.05;;;;;;;10.52;77.43;99425.31;5089369;28;20127;-84
2021/12/29 10:08:05;;;;;;;18.75;15.38;;;;;;;10.69;77.23;99429.97;5088944;28;20053;-84
2021/12/29 10:10:34;;;;;;;20.17;15.95;;;;;;;10.72;77.35;99423.69;5082722;28;20033;-85
2021/12/29 10:13:02;;;;;;;18.30;15.32;;;;;;;10.77;77.32;99426.25;5089255;28;20040;-85
2021/12/29 10:15:34;;;;;;;18.95;14.93;;;;;;;10.83;76.98;99421.31;5083200;28;20059;-79
2021/12/29 10:18:04;;;;;;;18.50;15.82;;;;;;;10.93;76.47;99421.69;5078407;28;20059;-79
2021/12/29 10:20:32;;;;;;;19.98;16.15;;;;;;;10.99;76.23;99413.13;5078095;28;20056;-78
2021/12/29 10:23:01;;;;;;;19.30;15.30;;;;;;;10.93;76.53;99404.97;5078417;28;20496;-80
2021/12/29 10:25:32;;;;;;;21.13;15.35;;;;;;;11.12;75.94;99400.84;5069206;28;20040;-78
2021/12/29 10:28:01;;;;;;;20.55;15.07;;;;;;;11.30;75.42;99409.84;5071250;28;20044;-81
2021/12/29 10:30:31;;;;;;;18.13;15.43;;;;;;;11.35;75.03;99407.63;5070404;28;22244;-81
2021/12/29 10:33:10;;;;;;;17.27;13.75;;;;;;;11.21;74.10;99398.78;5078609;28;20049;-81
2021/12/29 10:35:38;;;;;;;16.95;14.32;;;;;;;11.53;73.97;99402.69;5070950;28;20049;-81
2021/12/29 10:38:15;;;;;;;15.73;13.23;;;;;;;11.42;72.84;99406.25;5077679;28;20059;-79
2021/12/29 10:40:42;;;;;;;15.48;13.80;;;;;;;11.29;73.58;99405.41;5076765;28;20052;-80
2021/12/29 10:43:10;;;;;;;14.52;12.90;;;;;;;11.19;74.11;99403.88;5077446;28;20052;-80
2021/12/29 10:45:42;;;;;;;15.57;12.68;;;;;;;11.55;73.76;99405.13;5078250;28;20056;-77
2021/12/29 10:48:23;;;;;;;14.02;12.52;;;;;;;11.76;72.42;99414.19;5077797;28;20417;-81
2021/12/29 10:50:59;;;;;;;16.73;12.68;;;;;;;12.06;71.89;99411.19;5071162;28;20056;-80
2021/12/29 10:53:27;;;;;;;12.93;10.93;;;;;;;12.12;71.47;99398.63;5077624;28;20061;-79
2021/12/29 10:55:54;;;;;;;16.10;11.13;;;;;;;11.97;70.50;99407.72;5078080;28;20067;-78
2021/12/29 10:58:25;;;;;;;13.57;11.73;;;;;;;12.00;71.45;99404.22;5079129;28;20056;-79
2021/12/29 11:00:59;;;;;;;12.95;11.55;;;;;;;12.08;71.33;99394.91;5074546;28;20056;-79
2021/12/29 11:03:30;;;;;;;12.63;11.18;;;;;;;12.08;71.04;99406.06;5078571;28;20424;-79
2021/12/29 11:05:59;;;;;;;15.07;12.43;;;;;;;12.19;71.07;99403.59;5076631;28;20060;-79
2021/12/29 11:08:28;;;;;;;14.43;12.93;;;;;;;12.11;71.00;99405.34;5078154;28;20053;-78
2021/12/29 11:11:01;;;;;;;15.07;11.93;;;;;;;12.06;70.84;99405.59;5075825;28;20056;-78
2021/12/29 11:13:30;;;;;;;12.60;11.30;;;;;;;12.10;70.27;99414.91;5077991;28;20434;-78
2021/12/29 11:15:59;;;;;;;15.57;11.23;;;;;;;12.18;71.36;99410.38;5077860;28;20413;-79
2021/12/29 11:18:40;;;;;;;13.37;11.83;;;;;;;12.45;70.51;99406.00;5079193;28;20063;-78
2021/12/29 11:21:08;;;;;;;13.73;10.70;;;;;;;12.53;69.93;99399.44;5077261;28;20809;-79
2021/12/29 11:23:41;;;;;;;13.32;11.02;;;;;;;12.25;68.75;99404.19;5078372;28;20053;-77
2021/12/29 11:26:13;;;;;;;11.68;9.88;;;;;;;12.54;68.88;99400.28;5077924;28;20064;-77
2021/12/29 11:28:41;;;;;;;11.70;10.48;;;;;;;12.59;68.68;99400.00;5078120;28;20059;-79
2021/12/29 11:31:11;;;;;;;11.18;9.52;;;;;;;12.54;67.34;99389.91;5078273;28;20056;-79
2021/12/29 11:33:40;;;;;;;10.90;9.80;;;;;;;12.44;67.79;99395.19;5078430;28;20059;-78
2021/12/29 11:36:07;;;;;;;10.70;9.60;;;;;;;12.25;68.79;99396.63;5078442;28;20064;-78